createdAt,value
2022-10-30T00:00:40.991Z,95866.84
2022-10-30T00:03:12.333Z,95858.69
2022-10-30T00:05:48.042Z,95858.69
2022-10-30T00:08:17.176Z,95856.66
2022-10-30T00:10:45.128Z,95846.34
2022-10-30T00:13:13.612Z,95851.09
2022-10-30T00:15:40.708Z,95863.03
2022-10-30T00:18:07.514Z,95854.47
2022-10-30T00:20:37.078Z,95865.72
2022-10-30T00:23:03.959Z,95871.00
2022-10-30T00:25:30.830Z,95866.22
2022-10-30T00:27:57.645Z,95866.47
2022-10-30T00:30:24.439Z,95862.09
2022-10-30T00:32:51.288Z,95853.66
2022-10-30T00:35:18.102Z,95862.34
2022-10-30T00:37:44.879Z,95865.06
2022-10-30T00:40:16.410Z,95857.84
2022-10-30T00:42:43.332Z,95860.00
2022-10-30T00:45:15.309Z,95855.44
2022-10-30T00:47:55.766Z,95864.38
2022-10-30T00:50:30.837Z,95855.78
2022-10-30T00:53:03.912Z,95854.91
2022-10-30T00:55:37.984Z,95852.31
2022-10-30T00:58:09.550Z,95851.63
2022-10-30T01:00:39.170Z,95850.25
2022-10-30T01:03:06.549Z,95847.09
2022-10-30T01:05:34.704Z,95846.50
2022-10-30T01:08:01.725Z,95843.50
2022-10-30T01:10:28.913Z,95847.28
2022-10-30T01:12:58.727Z,95829.28
2022-10-30T01:15:33.360Z,95839.81
2022-10-30T01:18:38.243Z,95832.25
2022-10-30T01:21:38.831Z,95822.16
2022-10-30T01:24:20.518Z,95821.13
2022-10-30T01:26:51.393Z,95818.53
2022-10-30T01:29:36.620Z,95825.00
2022-10-30T01:32:24.088Z,95818.56
2022-10-30T01:35:22.798Z,95819.38
2022-10-30T01:38:02.013Z,95820.19
2022-10-30T01:40:29.143Z,95819.25
2022-10-30T01:42:58.122Z,95810.25
2022-10-30T01:45:28.813Z,95819.97
2022-10-30T01:48:04.239Z,95814.81
2022-10-30T01:50:39.278Z,95818.31
2022-10-30T01:53:38.452Z,95818.91
2022-10-30T01:56:16.093Z,95814.03
2022-10-30T01:59:11.505Z,95819.44
2022-10-30T02:01:40.141Z,95814.06
2022-10-30T02:04:09.233Z,95804.63
2022-10-30T02:06:37.893Z,95811.28
2022-10-30T02:09:06.063Z,95808.25
2022-10-30T02:11:36.285Z,95807.91
2022-10-30T02:14:06.256Z,95807.19
2022-10-30T02:16:38.102Z,95787.56
2022-10-30T02:19:06.693Z,95806.03
2022-10-30T02:21:33.764Z,95785.50
2022-10-30T02:24:00.643Z,95796.38
2022-10-30T02:26:27.514Z,95797.53
2022-10-30T02:28:54.389Z,95791.72
2022-10-30T02:31:21.157Z,95792.50
2022-10-30T02:33:48.440Z,95798.75
2022-10-30T02:36:17.965Z,95797.66
2022-10-30T02:38:45.049Z,95801.41
2022-10-30T02:41:12.608Z,95794.63
2022-10-30T02:43:39.435Z,95784.94
2022-10-30T02:46:06.296Z,95796.59
2022-10-30T02:48:34.129Z,95801.63
2022-10-30T02:51:02.109Z,95798.94
2022-10-30T02:53:30.235Z,95801.88
2022-10-30T02:56:03.551Z,95797.19
2022-10-30T02:58:30.704Z,95802.19
2022-10-30T03:00:57.661Z,95805.56
2022-10-30T03:03:24.580Z,95808.97
2022-10-30T03:05:51.561Z,95807.03
2022-10-30T03:08:18.357Z,95814.03
2022-10-30T03:10:45.236Z,95811.81
2022-10-30T03:13:12.008Z,95813.56
2022-10-30T03:15:38.858Z,95805.03
2022-10-30T03:18:06.002Z,95812.28
2022-10-30T03:20:36.620Z,95828.44
2022-10-30T03:23:03.391Z,95819.78
2022-10-30T03:25:30.226Z,95825.03
2022-10-30T03:27:59.670Z,95813.38
2022-10-30T03:30:27.507Z,95821.66
2022-10-30T03:32:54.304Z,95803.31
2022-10-30T03:35:21.198Z,95802.84
2022-10-30T03:37:48.093Z,95817.00
2022-10-30T03:40:14.925Z,95824.81
2022-10-30T03:42:42.165Z,95824.16
2022-10-30T03:45:09.558Z,95817.94
2022-10-30T03:47:40.672Z,95812.09
2022-10-30T03:50:09.256Z,95815.13
2022-10-30T03:52:36.086Z,95812.66
2022-10-30T03:55:02.899Z,95811.50
2022-10-30T03:57:29.840Z,95815.13
2022-10-30T04:00:11.871Z,95818.06
2022-10-30T04:02:49.077Z,95801.22
2022-10-30T04:05:21.663Z,95787.66
2022-10-30T04:07:55.214Z,95804.72
2022-10-30T04:10:23.918Z,95790.69
2022-10-30T04:12:53.165Z,95796.56
2022-10-30T04:15:20.025Z,95802.66
2022-10-30T04:17:51.432Z,95804.59
2022-10-30T04:20:20.027Z,95806.25
2022-10-30T04:22:48.241Z,95798.09
2022-10-30T04:25:19.713Z,95804.16
2022-10-30T04:27:49.764Z,95800.06
2022-10-30T04:30:20.235Z,95785.78
2022-10-30T04:32:53.034Z,95799.13
2022-10-30T04:35:21.745Z,95797.28
2022-10-30T04:37:56.559Z,95800.88
2022-10-30T04:40:25.720Z,95805.41
2022-10-30T04:42:57.722Z,95812.53
2022-10-30T04:45:25.500Z,95796.50
2022-10-30T04:47:53.580Z,95810.31
2022-10-30T04:50:20.493Z,95804.59
2022-10-30T04:52:47.370Z,95811.25
2022-10-30T04:55:14.206Z,95815.44
2022-10-30T04:57:43.407Z,95812.31
2022-10-30T05:00:11.771Z,95812.88
2022-10-30T05:02:39.318Z,95811.50
2022-10-30T05:05:06.506Z,95810.78
2022-10-30T05:07:33.310Z,95819.88
2022-10-30T05:10:00.120Z,95824.09
2022-10-30T05:12:26.973Z,95822.00
2022-10-30T05:14:55.860Z,95828.81
2022-10-30T05:17:23.563Z,95820.88
2022-10-30T05:19:51.208Z,95824.28
2022-10-30T05:22:18.190Z,95820.50
2022-10-30T05:24:45.020Z,95826.13
2022-10-30T05:27:12.789Z,95821.22
2022-10-30T05:29:40.251Z,95828.47
2022-10-30T05:32:07.186Z,95831.03
2022-10-30T05:34:39.740Z,95828.00
2022-10-30T05:37:07.177Z,95821.69
2022-10-30T05:39:35.055Z,95824.72
2022-10-30T05:42:03.121Z,95830.22
2022-10-30T05:44:59.920Z,95822.97
2022-10-30T05:47:27.698Z,95816.16
2022-10-30T05:49:56.683Z,95820.84
2022-10-30T05:52:25.969Z,95822.16
2022-10-30T05:54:52.813Z,95827.63
2022-10-30T05:58:04.657Z,95824.69
2022-10-30T06:00:35.362Z,95821.28
2022-10-30T06:03:04.976Z,95824.41
2022-10-30T06:05:35.134Z,95821.25
2022-10-30T06:08:02.990Z,95820.28
2022-10-30T06:10:30.419Z,95816.97
2022-10-30T06:13:20.580Z,95824.78
2022-10-30T06:16:00.326Z,95823.13
2022-10-30T06:18:40.519Z,95815.78
2022-10-30T06:21:10.926Z,95809.72
2022-10-30T06:23:48.735Z,95824.09
2022-10-30T06:26:34.225Z,95828.78
2022-10-30T06:29:06.996Z,95822.88
2022-10-30T06:31:33.853Z,95828.66
2022-10-30T06:34:01.793Z,95822.97
2022-10-30T06:36:29.827Z,95831.16
2022-10-30T06:38:58.395Z,95821.84
2022-10-30T06:41:30.627Z,95834.94
2022-10-30T06:44:29.590Z,95821.47
2022-10-30T06:46:56.437Z,95819.59
2022-10-30T06:49:23.270Z,95821.53
2022-10-30T06:51:57.279Z,95837.06
2022-10-30T06:54:24.146Z,95841.97
2022-10-30T06:57:00.729Z,95840.91
2022-10-30T06:59:41.279Z,95839.19
2022-10-30T07:02:28.561Z,95830.34
2022-10-30T07:04:59.190Z,95835.50
2022-10-30T07:07:26.750Z,95839.91
2022-10-30T07:09:53.584Z,95839.75
2022-10-30T07:12:27.167Z,95836.38
2022-10-30T07:15:09.986Z,95837.19
2022-10-30T07:18:04.127Z,95820.31
2022-10-30T07:20:35.138Z,95813.22
2022-10-30T07:23:02.547Z,95815.63
2022-10-30T07:25:30.114Z,95819.72
2022-10-30T07:28:06.314Z,95811.78
2022-10-30T07:30:36.740Z,95813.34
2022-10-30T07:33:16.299Z,95799.06
2022-10-30T07:36:03.768Z,95799.38
2022-10-30T07:38:52.185Z,95807.13
2022-10-30T07:41:33.468Z,95798.44
2022-10-30T07:44:20.548Z,95791.97
2022-10-30T07:46:56.923Z,95791.66
2022-10-30T07:49:50.063Z,95800.06
2022-10-30T07:52:18.154Z,95785.94
2022-10-30T07:54:47.822Z,95794.03
2022-10-30T07:57:52.910Z,95784.53
2022-10-30T08:00:55.038Z,95784.53
2022-10-30T08:03:29.602Z,95773.78
2022-10-30T08:06:11.469Z,95771.88
2022-10-30T08:08:40.493Z,95773.50
2022-10-30T08:11:28.802Z,95780.69
2022-10-30T08:13:57.803Z,95777.91
2022-10-30T08:16:24.708Z,95760.81
2022-10-30T08:18:51.705Z,95756.09
2022-10-30T08:21:21.919Z,95761.78
2022-10-30T08:23:58.908Z,95759.81
2022-10-30T08:26:28.389Z,95752.66
2022-10-30T08:28:55.347Z,95757.81
2022-10-30T08:31:24.332Z,95753.75
2022-10-30T08:34:14.307Z,95741.50
2022-10-30T08:36:52.180Z,95747.91
2022-10-30T08:39:20.108Z,95752.56
2022-10-30T08:41:59.432Z,95761.84
2022-10-30T08:44:31.108Z,95747.75
2022-10-30T08:47:16.619Z,95750.47
2022-10-30T08:49:47.818Z,95752.34
2022-10-30T08:52:17.872Z,95749.91
2022-10-30T08:54:48.482Z,95746.31
2022-10-30T08:57:15.791Z,95741.25
2022-10-30T08:59:42.620Z,95743.81
2022-10-30T09:02:21.051Z,95739.50
2022-10-30T09:05:09.345Z,95737.69
2022-10-30T09:08:02.243Z,95734.88
2022-10-30T09:10:48.238Z,95732.75
2022-10-30T09:13:15.781Z,95728.53
2022-10-30T09:15:43.336Z,95728.13
2022-10-30T09:18:10.776Z,95717.97
2022-10-30T09:20:38.489Z,95719.16
2022-10-30T09:23:05.389Z,95715.22
2022-10-30T09:25:32.350Z,95719.06
2022-10-30T09:28:17.698Z,95722.66
2022-10-30T09:31:04.099Z,95723.41
2022-10-30T09:33:35.017Z,95717.72
2022-10-30T09:36:22.495Z,95725.00
2022-10-30T09:38:51.726Z,95712.22
2022-10-30T09:41:50.208Z,95699.69
2022-10-30T09:44:25.746Z,95695.28
2022-10-30T09:47:03.761Z,95686.91
2022-10-30T09:49:49.642Z,95687.22
2022-10-30T09:52:28.799Z,95686.94
2022-10-30T09:55:00.443Z,95675.25
2022-10-30T09:57:52.451Z,95672.66
2022-10-30T10:00:27.925Z,95672.44
2022-10-30T10:03:16.173Z,95667.38
2022-10-30T10:06:04.918Z,95656.69
2022-10-30T10:09:06.401Z,95651.38
2022-10-30T10:12:10.335Z,95646.50
2022-10-30T10:14:43.105Z,95641.41
2022-10-30T10:17:14.480Z,95629.41
2022-10-30T10:19:55.233Z,95631.97
2022-10-30T10:22:26.962Z,95624.81
2022-10-30T10:24:55.078Z,95627.59
2022-10-30T10:27:30.652Z,95615.09
2022-10-30T10:30:03.507Z,95620.78
2022-10-30T10:33:02.544Z,95608.63
2022-10-30T10:35:46.725Z,95607.09
2022-10-30T10:38:28.769Z,95604.47
2022-10-30T10:41:10.768Z,95596.09
2022-10-30T10:44:00.771Z,95596.75
2022-10-30T10:46:30.575Z,95592.03
2022-10-30T10:49:18.227Z,95591.41
2022-10-30T10:51:50.846Z,95578.34
2022-10-30T10:54:39.267Z,95586.69
2022-10-30T10:57:08.025Z,95570.88
2022-10-30T10:59:44.034Z,95580.34
2022-10-30T11:02:30.181Z,95566.97
2022-10-30T11:05:05.217Z,95563.06
2022-10-30T11:07:37.332Z,95558.50
2022-10-30T11:10:13.530Z,95557.09
2022-10-30T11:12:40.980Z,95549.84
2022-10-30T11:15:44.782Z,95548.34
2022-10-30T11:18:11.674Z,95543.41
2022-10-30T11:20:44.345Z,95543.16
2022-10-30T11:23:34.410Z,95533.47
2022-10-30T11:26:05.799Z,95542.44
2022-10-30T11:28:39.172Z,95527.72
2022-10-30T11:31:43.398Z,95522.53
2022-10-30T11:34:17.814Z,95516.78
2022-10-30T11:36:44.945Z,95524.22
2022-10-30T11:39:26.902Z,95512.13
2022-10-30T11:42:17.913Z,95513.69
2022-10-30T11:44:51.760Z,95508.19
2022-10-30T11:47:23.128Z,95508.47
2022-10-30T11:49:56.811Z,95509.38
2022-10-30T11:52:26.979Z,95501.09
2022-10-30T11:54:58.674Z,95500.06
2022-10-30T11:57:47.871Z,95497.22
2022-10-30T12:00:25.510Z,95506.50
2022-10-30T12:02:54.886Z,95497.59
2022-10-30T12:05:26.508Z,95490.94
2022-10-30T12:08:17.693Z,95490.03
2022-10-30T12:10:56.643Z,95491.97
2022-10-30T12:13:25.674Z,95498.41
2022-10-30T12:16:16.772Z,95490.78
2022-10-30T12:18:56.837Z,95482.16
2022-10-30T12:21:25.421Z,95474.03
2022-10-30T12:23:59.774Z,95475.03
2022-10-30T12:26:27.868Z,95462.63
2022-10-30T12:28:59.422Z,95462.81
2022-10-30T12:31:53.397Z,95458.63
2022-10-30T12:34:39.149Z,95466.44
2022-10-30T12:37:20.691Z,95455.88
2022-10-30T12:40:22.308Z,95457.53
2022-10-30T12:42:57.677Z,95462.84
2022-10-30T12:45:53.404Z,95449.94
2022-10-30T12:48:37.690Z,95448.91
2022-10-30T12:51:24.143Z,95452.94
2022-10-30T12:54:03.877Z,95446.56
2022-10-30T12:56:38.614Z,95444.59
2022-10-30T12:59:50.525Z,95450.91
2022-10-30T13:02:38.836Z,95443.50
2022-10-30T13:05:25.405Z,95441.97
2022-10-30T13:08:02.809Z,95433.91
2022-10-30T13:10:39.094Z,95429.38
2022-10-30T13:13:16.936Z,95433.94
2022-10-30T13:15:54.362Z,95423.16
2022-10-30T13:18:23.465Z,95423.63
2022-10-30T13:21:06.951Z,95427.06
2022-10-30T13:23:51.738Z,95426.63
2022-10-30T13:26:30.089Z,95414.53
2022-10-30T13:29:03.013Z,95429.69
2022-10-30T13:31:46.156Z,95419.75
2022-10-30T13:34:40.459Z,95421.88
2022-10-30T13:37:22.385Z,95420.81
2022-10-30T13:40:05.757Z,95427.63
2022-10-30T13:43:07.321Z,95417.28
2022-10-30T13:45:51.090Z,95420.16
2022-10-30T13:48:36.751Z,95430.53
2022-10-30T13:51:18.814Z,95431.47
2022-10-30T13:53:49.710Z,95432.88
2022-10-30T13:56:19.097Z,95432.72
2022-10-30T13:59:00.249Z,95435.78
2022-10-30T14:01:48.416Z,95427.75
2022-10-30T14:04:25.166Z,95425.63
2022-10-30T14:07:16.006Z,95425.47
2022-10-30T14:09:58.427Z,95430.56
2022-10-30T14:13:08.957Z,95432.22
2022-10-30T14:15:46.815Z,95434.50
2022-10-30T14:18:13.600Z,95433.09
2022-10-30T14:20:48.569Z,95428.00
2022-10-30T14:23:30.441Z,95434.66
2022-10-30T14:26:03.550Z,95441.31
2022-10-30T14:28:36.013Z,95440.34
2022-10-30T14:31:10.271Z,95433.28
2022-10-30T14:33:40.060Z,95439.81
2022-10-30T14:36:12.978Z,95439.19
2022-10-30T14:38:41.017Z,95432.28
2022-10-30T14:41:26.360Z,95445.59
2022-10-30T14:44:04.300Z,95447.56
2022-10-30T14:46:43.335Z,95445.25
2022-10-30T14:49:37.865Z,95442.34
2022-10-30T14:52:24.964Z,95448.91
2022-10-30T14:55:17.223Z,95457.84
2022-10-30T14:57:51.976Z,95457.75
2022-10-30T15:00:24.886Z,95455.78
2022-10-30T15:02:57.757Z,95460.09
2022-10-30T15:05:46.728Z,95451.03
2022-10-30T15:08:47.598Z,95446.66
2022-10-30T15:11:39.154Z,95459.63
2022-10-30T15:14:21.708Z,95458.03
2022-10-30T15:16:59.886Z,95456.47
2022-10-30T15:19:29.544Z,95452.47
2022-10-30T15:21:57.244Z,95454.50
2022-10-30T15:24:32.095Z,95448.66
2022-10-30T15:27:01.741Z,95454.53
2022-10-30T15:29:34.123Z,95457.56
2022-10-30T15:32:16.365Z,95461.84
2022-10-30T15:35:04.375Z,95461.88
2022-10-30T15:37:32.170Z,95455.41
2022-10-30T15:40:20.006Z,95463.09
2022-10-30T15:42:49.284Z,95450.59
2022-10-30T15:45:18.894Z,95454.66
2022-10-30T15:47:49.275Z,95459.50
2022-10-30T15:50:17.396Z,95454.28
2022-10-30T15:52:44.223Z,95458.53
2022-10-30T15:55:16.594Z,95471.47
2022-10-30T15:58:03.036Z,95476.72
2022-10-30T16:00:35.795Z,95472.09
2022-10-30T16:03:18.157Z,95463.41
2022-10-30T16:05:45.108Z,95477.13
2022-10-30T16:08:24.081Z,95477.34
2022-10-30T16:10:55.289Z,95478.94
2022-10-30T16:13:28.933Z,95483.38
2022-10-30T16:15:56.093Z,95485.81
2022-10-30T16:18:31.082Z,95483.38
2022-10-30T16:21:06.324Z,95491.03
2022-10-30T16:23:42.722Z,95495.47
2022-10-30T16:26:25.030Z,95490.41
2022-10-30T16:28:52.263Z,95489.00
2022-10-30T16:31:20.461Z,95491.00
2022-10-30T16:33:49.446Z,95502.09
2022-10-30T16:36:17.449Z,95500.66
2022-10-30T16:38:49.384Z,95504.69
2022-10-30T16:41:21.383Z,95499.44
2022-10-30T16:44:12.872Z,95506.69
2022-10-30T16:46:54.890Z,95507.09
2022-10-30T16:49:26.197Z,95506.66
2022-10-30T16:52:21.929Z,95514.09
2022-10-30T16:54:58.478Z,95508.22
2022-10-30T16:57:45.666Z,95494.28
2022-10-30T17:00:41.825Z,95510.41
2022-10-30T17:03:11.780Z,95509.38
2022-10-30T17:05:40.525Z,95510.19
2022-10-30T17:08:29.739Z,95520.03
2022-10-30T17:11:00.054Z,95510.94
2022-10-30T17:13:39.049Z,95509.72
2022-10-30T17:16:24.877Z,95510.09
2022-10-30T17:18:54.171Z,95509.28
2022-10-30T17:21:39.485Z,95498.31
2022-10-30T17:24:19.285Z,95511.66
2022-10-30T17:26:55.200Z,95512.03
2022-10-30T17:29:51.407Z,95515.22
2022-10-30T17:32:23.593Z,95517.22
2022-10-30T17:35:03.018Z,95508.50
2022-10-30T17:37:29.894Z,95512.53
2022-10-30T17:39:56.888Z,95514.72
2022-10-30T17:42:23.841Z,95506.22
2022-10-30T17:44:50.656Z,95510.91
2022-10-30T17:47:19.951Z,95505.81
2022-10-30T17:49:47.336Z,95501.31
2022-10-30T17:52:16.789Z,95505.34
2022-10-30T17:54:44.298Z,95505.72
2022-10-30T17:57:12.349Z,95511.75
2022-10-30T17:59:40.252Z,95501.22
2022-10-30T18:02:15.517Z,95510.06
2022-10-30T18:04:43.543Z,95513.03
2022-10-30T18:07:11.154Z,95494.25
2022-10-30T18:09:38.783Z,95502.72
2022-10-30T18:12:11.227Z,95498.88
2022-10-30T18:14:38.166Z,95501.88
2022-10-30T18:17:05.000Z,95502.22
2022-10-30T18:19:31.952Z,95507.25
2022-10-30T18:21:58.778Z,95507.19
2022-10-30T18:24:25.677Z,95515.22
2022-10-30T18:26:54.056Z,95524.03
2022-10-30T18:29:21.218Z,95513.53
2022-10-30T18:31:48.331Z,95515.72
2022-10-30T18:34:18.466Z,95517.44
2022-10-30T18:36:45.935Z,95520.44
2022-10-30T18:39:13.157Z,95516.56
2022-10-30T18:41:45.339Z,95521.56
2022-10-30T18:44:16.199Z,95528.78
2022-10-30T18:46:43.595Z,95513.03
2022-10-30T18:49:11.229Z,95522.75
2022-10-30T18:51:39.275Z,95518.31
2022-10-30T18:54:14.053Z,95520.31
2022-10-30T18:56:41.116Z,95516.06
2022-10-30T18:59:07.980Z,95519.50
2022-10-30T19:01:35.458Z,95515.63
2022-10-30T19:04:03.956Z,95524.91
2022-10-30T19:06:32.970Z,95525.09
2022-10-30T19:08:59.863Z,95522.66
2022-10-30T19:11:28.253Z,95532.66
2022-10-30T19:13:57.228Z,95519.47
2022-10-30T19:16:25.604Z,95527.75
2022-10-30T19:18:53.150Z,95535.22
2022-10-30T19:21:23.205Z,95531.63
2022-10-30T19:23:50.130Z,95532.22
2022-10-30T19:26:17.778Z,95538.06
2022-10-30T19:28:45.970Z,95532.22
2022-10-30T19:31:17.541Z,95534.72
2022-10-30T19:33:45.159Z,95534.19
2022-10-30T19:36:29.372Z,95525.34
2022-10-30T19:38:56.743Z,95529.97
2022-10-30T19:41:25.112Z,95525.91
2022-10-30T19:43:53.531Z,95532.38
2022-10-30T19:46:20.850Z,95532.38
2022-10-30T19:49:02.856Z,95527.06
2022-10-30T19:51:29.678Z,95529.88
2022-10-30T19:53:56.580Z,95530.88
2022-10-30T19:56:23.410Z,95531.63
2022-10-30T19:58:51.493Z,95536.59
2022-10-30T20:01:18.658Z,95541.53
2022-10-30T20:03:45.678Z,95546.31
2022-10-30T20:06:13.573Z,95528.13
2022-10-30T20:08:41.297Z,95543.97
2022-10-30T20:11:08.305Z,95553.97
2022-10-30T20:13:37.407Z,95554.16
2022-10-30T20:16:05.649Z,95553.25
2022-10-30T20:18:34.818Z,95561.47
2022-10-30T20:21:09.744Z,95558.59
2022-10-30T20:23:37.251Z,95569.03
2022-10-30T20:26:24.341Z,95574.31
2022-10-30T20:28:51.901Z,95564.34
2022-10-30T20:31:19.156Z,95570.56
2022-10-30T20:33:45.915Z,95569.28
2022-10-30T20:36:15.576Z,95569.63
2022-10-30T20:38:42.610Z,95560.00
2022-10-30T20:41:20.150Z,95561.81
2022-10-30T20:43:46.973Z,95566.41
2022-10-30T20:46:13.797Z,95563.81
2022-10-30T20:48:40.548Z,95558.94
2022-10-30T20:51:08.000Z,95564.16
2022-10-30T20:53:34.816Z,95556.88
2022-10-30T20:56:01.584Z,95550.84
2022-10-30T20:58:28.714Z,95551.81
2022-10-30T21:00:58.440Z,95545.34
2022-10-30T21:03:26.479Z,95551.06
2022-10-30T21:05:58.619Z,95547.47
2022-10-30T21:08:26.869Z,95544.69
2022-10-30T21:10:57.733Z,95538.25
2022-10-30T21:13:24.615Z,95541.44
2022-10-30T21:15:51.596Z,95539.81
2022-10-30T21:18:18.432Z,95542.44
2022-10-30T21:20:45.338Z,95544.63
2022-10-30T21:23:13.266Z,95544.16
2022-10-30T21:25:40.093Z,95549.19
2022-10-30T21:28:06.912Z,95548.75
2022-10-30T21:30:33.802Z,95545.97
2022-10-30T21:33:00.812Z,95539.63
2022-10-30T21:35:29.388Z,95550.06
2022-10-30T21:37:56.196Z,95539.63
2022-10-30T21:40:24.024Z,95538.81
2022-10-30T21:42:51.918Z,95539.19
2022-10-30T21:45:18.805Z,95537.56
2022-10-30T21:47:45.612Z,95547.19
2022-10-30T21:50:13.024Z,95551.63
2022-10-30T21:52:40.849Z,95549.00
2022-10-30T21:55:09.137Z,95558.81
2022-10-30T21:57:36.469Z,95550.16
2022-10-30T22:00:05.694Z,95554.41
2022-10-30T22:02:35.677Z,95552.31
2022-10-30T22:05:02.495Z,95565.19
2022-10-30T22:07:29.703Z,95561.47
2022-10-30T22:09:56.573Z,95562.97
2022-10-30T22:12:23.383Z,95578.28
2022-10-30T22:14:51.449Z,95579.78
2022-10-30T22:17:18.506Z,95581.94
2022-10-30T22:19:45.262Z,95577.06
2022-10-30T22:22:12.093Z,95569.63
2022-10-30T22:24:38.877Z,95568.38
2022-10-30T22:27:05.772Z,95579.78
2022-10-30T22:29:32.623Z,95573.69
2022-10-30T22:31:59.444Z,95569.50
2022-10-30T22:34:26.310Z,95557.53
2022-10-30T22:36:53.193Z,95558.06
2022-10-30T22:39:20.039Z,95564.25
2022-10-30T22:41:46.885Z,95551.31
2022-10-30T22:44:17.552Z,95566.47
2022-10-30T22:46:44.809Z,95556.13
2022-10-30T22:49:12.535Z,95551.91
2022-10-30T22:51:39.896Z,95549.94
2022-10-30T22:54:12.296Z,95551.41
2022-10-30T22:56:40.596Z,95551.56
2022-10-30T22:59:11.654Z,95551.25
2022-10-30T23:01:39.503Z,95542.63
2022-10-30T23:04:07.429Z,95538.56
2022-10-30T23:06:36.267Z,95544.56
2022-10-30T23:09:06.153Z,95540.19
2022-10-30T23:11:33.423Z,95531.72
2022-10-30T23:14:03.397Z,95534.97
2022-10-30T23:16:31.334Z,95530.75
2022-10-30T23:19:00.411Z,95526.53
2022-10-30T23:21:29.785Z,95535.78
2022-10-30T23:23:56.854Z,95537.75
2022-10-30T23:26:27.514Z,95544.09
2022-10-30T23:28:55.930Z,95530.44
2022-10-30T23:31:32.471Z,95544.44
2022-10-30T23:34:02.303Z,95545.41
2022-10-30T23:36:29.406Z,95546.41
2022-10-30T23:39:04.947Z,95544.78
2022-10-30T23:41:34.554Z,95545.78
2022-10-30T23:44:11.308Z,95547.41
2022-10-30T23:46:38.194Z,95555.22
2022-10-30T23:49:05.279Z,95547.56
2022-10-30T23:51:32.607Z,95530.34
2022-10-30T23:53:59.630Z,95538.31
2022-10-30T23:56:28.275Z,95549.72
2022-10-30T23:58:55.624Z,95542.06
